Terminal Aerodrome Forecast
Issued by NWS Corpus Christi, TX

Current Version | Previous Version | Text Only | Print | Product List | Glossary Off
Versions: 1 2 3 4 5 6 7 8 9 10 11 12 13 14

747
FTUS44 KCRP 202341
TAFCRP
TAF
KCRP 202341Z 2100/2124 12014G20KT P6SM SCT050
     FM210100 13011KT P6SM FEW022
     FM210800 VRB03KT P6SM SCT018 SCT050
     FM211400 13008KT P6SM SCT025 BKN050
      TEMPO 2114/2116 BKN025
     FM211600 12010G20KT P6SM FEW025 BKN050 PROB30 2117/2120 -TSRA
      BKN035CB=

USA.gov is the U.S. government's official web portal to all federal, state and local government web resources and services.